To NAV CANADA Home Page Login to a new session Search on AWWS site Feedback and Comments Disclaimer Vers la page française équivalente Tips FAQ What's new on the site To the Forecasts and Observations / NOTAM section To "File a Flight Plan" website Publications and other links Update of the User's profile FIC Telephone Numbers My Weather Data Folder Route Weather Data Regional Weather Data Local Weather Data To the Forecasts and Observations / NOTAM section
Request Generated 08/22/2017 at 01:38:46 UTC . Weather information available at that time is displayed.

METAR/TAF

HIGH LEVEL/AB    (show WxCam)

METAR CYOJ 220100Z 34003KT 240V350 15SM FEW060 FEW150 SCT260 22/05
A2994 RMK SC1AC1CI2 SLP151 DENSITY ALT 2200FT=
METAR CYOJ 220000Z VRB07KT 15SM FEW060 FEW150 SCT260 22/04 A2994 RMK
SC1AC1CI2 SLP150 DENSITY ALT 2200FT=
METAR CYOJ 212300Z VRB02KT 15SM FEW066 FEW150 SCT260 22/06 A2994 RMK
CU1AC1CI2 SLP152 DENSITY ALT 2200FT=

TAF CYOJ 220038Z 2201/2213 VRB03KT P6SM FEW060
BECMG 2202/2204 06005KT
RMK NXT FCST BY 220700Z=
Your time UTC time
Weather data provided by Environment Canada and NAV CANADA